sensor_id;sensor_type;location;lat;lon;timestamp;temperature;humidity
8595;DHT22;4335;48.860;9.198;2023-08-06T00:02:25;15.90;99.90
8595;DHT22;4335;48.860;9.198;2023-08-06T00:04:51;16.00;99.90
8595;DHT22;4335;48.860;9.198;2023-08-06T00:07:18;16.00;99.90
8595;DHT22;4335;48.860;9.198;2023-08-06T00:09:45;16.00;99.90
8595;DHT22;4335;48.860;9.198;2023-08-06T00:12:17;16.00;99.90
8595;DHT22;4335;48.860;9.198;2023-08-06T00:14:45;16.00;99.90
8595;DHT22;4335;48.860;9.198;2023-08-06T00:17:11;16.00;99.90
8595;DHT22;4335;48.860;9.198;2023-08-06T00:19:47;16.00;99.90
8595;DHT22;4335;48.860;9.198;2023-08-06T00:22:20;16.00;99.90
8595;DHT22;4335;48.860;9.198;2023-08-06T00:24:52;16.00;99.90
8595;DHT22;4335;48.860;9.198;2023-08-06T00:27:19;16.00;99.90
8595;DHT22;4335;48.860;9.198;2023-08-06T00:29:46;16.00;99.90
8595;DHT22;4335;48.860;9.198;2023-08-06T00:32:13;15.90;99.90
8595;DHT22;4335;48.860;9.198;2023-08-06T00:34:39;15.90;99.90
8595;DHT22;4335;48.860;9.198;2023-08-06T00:37:06;15.80;99.90
8595;DHT22;4335;48.860;9.198;2023-08-06T00:39:33;15.80;99.90
8595;DHT22;4335;48.860;9.198;2023-08-06T00:42:03;15.80;99.90
8595;DHT22;4335;48.860;9.198;2023-08-06T00:44:29;15.80;99.90
8595;DHT22;4335;48.860;9.198;2023-08-06T00:46:57;15.70;99.90
8595;DHT22;4335;48.860;9.198;2023-08-06T00:49:29;15.70;99.90
8595;DHT22;4335;48.860;9.198;2023-08-06T00:51:56;15.70;99.90
8595;DHT22;4335;48.860;9.198;2023-08-06T00:54:24;15.70;99.90
8595;DHT22;4335;48.860;9.198;2023-08-06T00:56:57;15.70;99.90
8595;DHT22;4335;48.860;9.198;2023-08-06T00:59:28;15.70;99.90
8595;DHT22;4335;48.860;9.198;2023-08-06T01:01:56;15.60;99.90
8595;DHT22;4335;48.860;9.198;2023-08-06T01:04:25;15.60;99.90
8595;DHT22;4335;48.860;9.198;2023-08-06T01:07:02;15.60;99.90
8595;DHT22;4335;48.860;9.198;2023-08-06T01:09:43;15.60;99.90
8595;DHT22;4335;48.860;9.198;2023-08-06T01:12:18;15.60;99.90
8595;DHT22;4335;48.860;9.198;2023-08-06T01:15:04;15.50;99.90
8595;DHT22;4335;48.860;9.198;2023-08-06T01:17:34;15.50;99.90
8595;DHT22;4335;48.860;9.198;2023-08-06T01:20:05;15.50;99.90
8595;DHT22;4335;48.860;9.198;2023-08-06T01:22:35;15.50;99.90
8595;DHT22;4335;48.860;9.198;2023-08-06T01:25:02;15.40;99.90
8595;DHT22;4335;48.860;9.198;2023-08-06T01:27:42;15.40;99.90
8595;DHT22;4335;48.860;9.198;2023-08-06T01:30:19;15.40;99.90
8595;DHT22;4335;48.860;9.198;2023-08-06T01:32:52;15.40;99.90
8595;DHT22;4335;48.860;9.198;2023-08-06T01:35:20;15.40;99.90
8595;DHT22;4335;48.860;9.198;2023-08-06T01:37:58;15.40;99.90
8595;DHT22;4335;48.860;9.198;2023-08-06T01:40:25;15.40;99.90
8595;DHT22;4335;48.860;9.198;2023-08-06T01:42:53;15.50;99.90
8595;DHT22;4335;48.860;9.198;2023-08-06T01:45:19;15.50;99.90
8595;DHT22;4335;48.860;9.198;2023-08-06T01:47:54;15.50;99.90
8595;DHT22;4335;48.860;9.198;2023-08-06T01:50:24;15.50;99.90
8595;DHT22;4335;48.860;9.198;2023-08-06T01:52:50;15.50;99.90
8595;DHT22;4335;48.860;9.198;2023-08-06T01:55:24;15.50;99.90
8595;DHT22;4335;48.860;9.198;2023-08-06T01:57:50;15.50;99.90
8595;DHT22;4335;48.860;9.198;2023-08-06T02:00:17;15.50;99.90
8595;DHT22;4335;48.860;9.198;2023-08-06T02:02:44;15.50;99.90
8595;DHT22;4335;48.860;9.198;2023-08-06T02:05:16;15.50;99.90
8595;DHT22;4335;48.860;9.198;2023-08-06T02:07:43;15.40;99.90
8595;DHT22;4335;48.860;9.198;2023-08-06T02:10:09;15.40;99.90
8595;DHT22;4335;48.860;9.198;2023-08-06T02:12:37;15.40;99.90
8595;DHT22;4335;48.860;9.198;2023-08-06T02:15:07;15.30;99.90
8595;DHT22;4335;48.860;9.198;2023-08-06T02:17:37;15.30;99.90
8595;DHT22;4335;48.860;9.198;2023-08-06T02:20:04;15.20;99.90
8595;DHT22;4335;48.860;9.198;2023-08-06T02:22:31;15.20;99.90
8595;DHT22;4335;48.860;9.198;2023-08-06T02:24:59;15.20;99.90
8595;DHT22;4335;48.860;9.198;2023-08-06T02:27:26;15.10;99.90
8595;DHT22;4335;48.860;9.198;2023-08-06T02:29:59;15.00;99.90
8595;DHT22;4335;48.860;9.198;2023-08-06T02:32:26;15.00;99.90
8595;DHT22;4335;48.860;9.198;2023-08-06T02:34:52;15.00;99.90
8595;DHT22;4335;48.860;9.198;2023-08-06T02:37:19;14.90;99.90
8595;DHT22;4335;48.860;9.198;2023-08-06T02:39:46;14.90;99.90
8595;DHT22;4335;48.860;9.198;2023-08-06T02:42:15;14.90;99.90
8595;DHT22;4335;48.860;9.198;2023-08-06T02:44:42;14.90;99.90
8595;DHT22;4335;48.860;9.198;2023-08-06T02:47:09;14.80;99.90
8595;DHT22;4335;48.860;9.198;2023-08-06T02:49:39;14.80;99.90
8595;DHT22;4335;48.860;9.198;2023-08-06T02:52:06;14.80;99.90
8595;DHT22;4335;48.860;9.198;2023-08-06T02:54:33;14.80;99.90
8595;DHT22;4335;48.860;9.198;2023-08-06T02:57:03;14.80;99.90
8595;DHT22;4335;48.860;9.198;2023-08-06T02:59:31;14.80;99.90
8595;DHT22;4335;48.860;9.198;2023-08-06T03:02:00;14.70;99.90
8595;DHT22;4335;48.860;9.198;2023-08-06T03:04:37;14.70;99.90
8595;DHT22;4335;48.860;9.198;2023-08-06T03:07:04;14.70;99.90
8595;DHT22;4335;48.860;9.198;2023-08-06T03:09:31;14.60;99.90
8595;DHT22;4335;48.860;9.198;2023-08-06T03:12:00;14.60;99.90
8595;DHT22;4335;48.860;9.198;2023-08-06T03:14:33;14.60;99.90
8595;DHT22;4335;48.860;9.198;2023-08-06T03:17:00;14.60;99.90
8595;DHT22;4335;48.860;9.198;2023-08-06T03:19:30;14.60;99.90
8595;DHT22;4335;48.860;9.198;2023-08-06T03:21:59;14.60;99.90
8595;DHT22;4335;48.860;9.198;2023-08-06T03:24:26;14.60;99.90
8595;DHT22;4335;48.860;9.198;2023-08-06T03:26:52;14.60;99.90
8595;DHT22;4335;48.860;9.198;2023-08-06T03:29:22;14.70;99.90
8595;DHT22;4335;48.860;9.198;2023-08-06T03:31:52;14.70;99.90
8595;DHT22;4335;48.860;9.198;2023-08-06T03:34:19;14.70;99.90
8595;DHT22;4335;48.860;9.198;2023-08-06T03:36:45;14.70;99.90
8595;DHT22;4335;48.860;9.198;2023-08-06T03:39:14;14.70;99.90
8595;DHT22;4335;48.860;9.198;2023-08-06T03:41:41;14.80;99.90
8595;DHT22;4335;48.860;9.198;2023-08-06T03:44:11;14.80;99.90
8595;DHT22;4335;48.860;9.198;2023-08-06T03:46:43;14.80;99.90
8595;DHT22;4335;48.860;9.198;2023-08-06T03:49:16;14.80;99.90
8595;DHT22;4335;48.860;9.198;2023-08-06T03:51:46;14.80;99.90
8595;DHT22;4335;48.860;9.198;2023-08-06T03:54:19;14.80;99.90
8595;DHT22;4335;48.860;9.198;2023-08-06T03:56:49;14.80;99.90
8595;DHT22;4335;48.860;9.198;2023-08-06T03:59:15;14.90;99.90
8595;DHT22;4335;48.860;9.198;2023-08-06T04:01:45;14.90;99.90
8595;DHT22;4335;48.860;9.198;2023-08-06T04:04:12;14.90;99.90
8595;DHT22;4335;48.860;9.198;2023-08-06T04:06:38;14.90;99.90
8595;DHT22;4335;48.860;9.198;2023-08-06T04:09:11;14.90;99.90
8595;DHT22;4335;48.860;9.198;2023-08-06T04:11:38;14.90;99.90
8595;DHT22;4335;48.860;9.198;2023-08-06T04:14:11;14.90;99.90
8595;DHT22;4335;48.860;9.198;2023-08-06T04:16:38;14.90;99.90
8595;DHT22;4335;48.860;9.198;2023-08-06T04:19:04;14.90;99.90
8595;DHT22;4335;48.860;9.198;2023-08-06T04:21:31;14.90;99.90
8595;DHT22;4335;48.860;9.198;2023-08-06T04:23:58;14.90;99.90
8595;DHT22;4335;48.860;9.198;2023-08-06T04:26:24;14.90;99.90
8595;DHT22;4335;48.860;9.198;2023-08-06T04:28:52;15.00;99.90
8595;DHT22;4335;48.860;9.198;2023-08-06T04:31:18;15.00;99.90
8595;DHT22;4335;48.860;9.198;2023-08-06T04:33:45;15.00;99.90
8595;DHT22;4335;48.860;9.198;2023-08-06T04:36:12;15.00;99.90
8595;DHT22;4335;48.860;9.198;2023-08-06T04:38:38;15.00;99.90
8595;DHT22;4335;48.860;9.198;2023-08-06T04:41:16;15.10;99.90
8595;DHT22;4335;48.860;9.198;2023-08-06T04:43:43;15.10;99.90
8595;DHT22;4335;48.860;9.198;2023-08-06T04:46:11;15.20;99.90
8595;DHT22;4335;48.860;9.198;2023-08-06T04:48:37;15.20;99.90
8595;DHT22;4335;48.860;9.198;2023-08-06T04:51:04;15.20;99.90
8595;DHT22;4335;48.860;9.198;2023-08-06T04:53:31;15.30;99.90
8595;DHT22;4335;48.860;9.198;2023-08-06T04:55:57;15.30;99.90
8595;DHT22;4335;48.860;9.198;2023-08-06T04:58:24;15.30;99.90
8595;DHT22;4335;48.860;9.198;2023-08-06T05:00:53;15.30;99.90
8595;DHT22;4335;48.860;9.198;2023-08-06T05:03:23;15.30;99.90
8595;DHT22;4335;48.860;9.198;2023-08-06T05:05:50;15.30;99.90
8595;DHT22;4335;48.860;9.198;2023-08-06T05:08:17;15.30;99.90
8595;DHT22;4335;48.860;9.198;2023-08-06T05:10:43;15.30;99.90
8595;DHT22;4335;48.860;9.198;2023-08-06T05:13:22;15.40;99.90
8595;DHT22;4335;48.860;9.198;2023-08-06T05:15:53;15.40;99.90
8595;DHT22;4335;48.860;9.198;2023-08-06T05:18:20;15.50;99.90
8595;DHT22;4335;48.860;9.198;2023-08-06T05:20:54;15.50;99.90
8595;DHT22;4335;48.860;9.198;2023-08-06T05:23:21;15.60;99.90
8595;DHT22;4335;48.860;9.198;2023-08-06T05:25:48;15.70;99.90
8595;DHT22;4335;48.860;9.198;2023-08-06T05:28:17;15.90;99.90
8595;DHT22;4335;48.860;9.198;2023-08-06T05:30:44;16.10;99.90
8595;DHT22;4335;48.860;9.198;2023-08-06T05:33:13;16.40;99.90
8595;DHT22;4335;48.860;9.198;2023-08-06T05:35:41;16.80;99.90
8595;DHT22;4335;48.860;9.198;2023-08-06T05:38:17;17.20;99.90
8595;DHT22;4335;48.860;9.198;2023-08-06T05:40:47;17.50;99.90
8595;DHT22;4335;48.860;9.198;2023-08-06T05:43:14;17.60;99.90
8595;DHT22;4335;48.860;9.198;2023-08-06T05:45:44;17.60;99.90
8595;DHT22;4335;48.860;9.198;2023-08-06T05:48:14;17.70;99.90
8595;DHT22;4335;48.860;9.198;2023-08-06T05:50:41;17.70;99.90
8595;DHT22;4335;48.860;9.198;2023-08-06T05:53:13;17.70;99.90
8595;DHT22;4335;48.860;9.198;2023-08-06T05:55:41;17.70;99.90
8595;DHT22;4335;48.860;9.198;2023-08-06T05:58:10;17.60;99.90
8595;DHT22;4335;48.860;9.198;2023-08-06T06:00:37;17.60;99.90
8595;DHT22;4335;48.860;9.198;2023-08-06T06:03:06;17.50;99.90
8595;DHT22;4335;48.860;9.198;2023-08-06T06:05:33;17.40;99.90
8595;DHT22;4335;48.860;9.198;2023-08-06T06:08:09;17.30;99.90
8595;DHT22;4335;48.860;9.198;2023-08-06T06:10:36;17.30;99.90
8595;DHT22;4335;48.860;9.198;2023-08-06T06:13:06;17.20;99.90
8595;DHT22;4335;48.860;9.198;2023-08-06T06:15:33;17.10;99.90
8595;DHT22;4335;48.860;9.198;2023-08-06T06:17:59;17.10;99.90
8595;DHT22;4335;48.860;9.198;2023-08-06T06:20:29;17.10;99.90
8595;DHT22;4335;48.860;9.198;2023-08-06T06:22:55;17.10;99.90
8595;DHT22;4335;48.860;9.198;2023-08-06T06:25:25;17.10;99.90
8595;DHT22;4335;48.860;9.198;2023-08-06T06:27:54;17.10;99.90
8595;DHT22;4335;48.860;9.198;2023-08-06T06:30:24;16.90;99.90
8595;DHT22;4335;48.860;9.198;2023-08-06T06:32:51;16.90;99.90
8595;DHT22;4335;48.860;9.198;2023-08-06T06:35:27;16.90;99.90
8595;DHT22;4335;48.860;9.198;2023-08-06T06:37:53;16.80;99.90
8595;DHT22;4335;48.860;9.198;2023-08-06T06:40:20;16.70;99.90
8595;DHT22;4335;48.860;9.198;2023-08-06T06:42:49;16.70;99.90
8595;DHT22;4335;48.860;9.198;2023-08-06T06:45:16;16.60;99.90
8595;DHT22;4335;48.860;9.198;2023-08-06T06:47:43;16.60;99.90
8595;DHT22;4335;48.860;9.198;2023-08-06T06:50:13;16.60;99.90
8595;DHT22;4335;48.860;9.198;2023-08-06T06:52:40;16.60;99.90
8595;DHT22;4335;48.860;9.198;2023-08-06T06:55:07;16.50;99.90
8595;DHT22;4335;48.860;9.198;2023-08-06T06:57:34;16.60;99.90
8595;DHT22;4335;48.860;9.198;2023-08-06T07:00:00;16.60;99.90
8595;DHT22;4335;48.860;9.198;2023-08-06T07:02:27;16.50;99.90
8595;DHT22;4335;48.860;9.198;2023-08-06T07:05:07;16.60;99.90
8595;DHT22;4335;48.860;9.198;2023-08-06T07:07:35;16.60;99.90
8595;DHT22;4335;48.860;9.198;2023-08-06T07:10:06;16.60;99.90
8595;DHT22;4335;48.860;9.198;2023-08-06T07:12:33;16.60;99.90
8595;DHT22;4335;48.860;9.198;2023-08-06T07:15:06;16.70;99.90
8595;DHT22;4335;48.860;9.198;2023-08-06T07:17:33;16.70;99.90
8595;DHT22;4335;48.860;9.198;2023-08-06T07:20:00;16.80;99.90
8595;DHT22;4335;48.860;9.198;2023-08-06T07:22:30;16.70;99.90
8595;DHT22;4335;48.860;9.198;2023-08-06T07:24:57;16.70;99.90
8595;DHT22;4335;48.860;9.198;2023-08-06T07:27:24;16.60;99.90
8595;DHT22;4335;48.860;9.198;2023-08-06T07:29:57;16.60;99.90
8595;DHT22;4335;48.860;9.198;2023-08-06T07:32:30;16.60;99.90
8595;DHT22;4335;48.860;9.198;2023-08-06T07:34:59;16.50;99.90
8595;DHT22;4335;48.860;9.198;2023-08-06T07:37:29;16.50;99.90
8595;DHT22;4335;48.860;9.198;2023-08-06T07:40:02;16.50;99.90
8595;DHT22;4335;48.860;9.198;2023-08-06T07:42:33;16.50;99.90
8595;DHT22;4335;48.860;9.198;2023-08-06T07:45:00;16.50;99.90
8595;DHT22;4335;48.860;9.198;2023-08-06T07:47:35;16.60;99.90
8595;DHT22;4335;48.860;9.198;2023-08-06T07:50:02;16.60;99.90
8595;DHT22;4335;48.860;9.198;2023-08-06T07:52:30;16.70;99.90
8595;DHT22;4335;48.860;9.198;2023-08-06T07:54:59;16.80;99.90
8595;DHT22;4335;48.860;9.198;2023-08-06T07:57:30;16.90;99.90
8595;DHT22;4335;48.860;9.198;2023-08-06T08:00:03;16.80;99.90
8595;DHT22;4335;48.860;9.198;2023-08-06T08:02:30;16.90;99.90
8595;DHT22;4335;48.860;9.198;2023-08-06T08:04:57;16.80;99.90
8595;DHT22;4335;48.860;9.198;2023-08-06T08:07:26;16.80;99.90
8595;DHT22;4335;48.860;9.198;2023-08-06T08:10:03;16.80;99.90
8595;DHT22;4335;48.860;9.198;2023-08-06T08:12:31;16.90;99.90
8595;DHT22;4335;48.860;9.198;2023-08-06T08:14:57;17.00;99.90
8595;DHT22;4335;48.860;9.198;2023-08-06T08:17:27;17.10;99.90
8595;DHT22;4335;48.860;9.198;2023-08-06T08:19:57;17.30;99.90
8595;DHT22;4335;48.860;9.198;2023-08-06T08:22:26;17.50;99.90
8595;DHT22;4335;48.860;9.198;2023-08-06T08:24:53;17.80;99.90
8595;DHT22;4335;48.860;9.198;2023-08-06T08:27:20;17.90;99.90
8595;DHT22;4335;48.860;9.198;2023-08-06T08:29:52;18.20;99.90
8595;DHT22;4335;48.860;9.198;2023-08-06T08:32:19;18.60;99.90
8595;DHT22;4335;48.860;9.198;2023-08-06T08:34:46;18.90;99.90
8595;DHT22;4335;48.860;9.198;2023-08-06T08:37:16;19.20;99.90
8595;DHT22;4335;48.860;9.198;2023-08-06T08:39:42;19.40;99.90
8595;DHT22;4335;48.860;9.198;2023-08-06T08:42:10;19.30;99.90
8595;DHT22;4335;48.860;9.198;2023-08-06T08:44:43;19.20;99.90
8595;DHT22;4335;48.860;9.198;2023-08-06T08:47:11;19.20;99.90
8595;DHT22;4335;48.860;9.198;2023-08-06T08:49:41;19.50;99.90
8595;DHT22;4335;48.860;9.198;2023-08-06T08:52:08;19.60;99.90
8595;DHT22;4335;48.860;9.198;2023-08-06T08:54:38;19.70;99.90
8595;DHT22;4335;48.860;9.198;2023-08-06T08:57:09;19.70;99.90
8595;DHT22;4335;48.860;9.198;2023-08-06T08:59:39;19.60;99.90
8595;DHT22;4335;48.860;9.198;2023-08-06T09:02:09;19.40;99.90
8595;DHT22;4335;48.860;9.198;2023-08-06T09:04:37;19.40;99.90
8595;DHT22;4335;48.860;9.198;2023-08-06T09:07:05;19.30;99.90
8595;DHT22;4335;48.860;9.198;2023-08-06T09:09:35;19.10;99.90
8595;DHT22;4335;48.860;9.198;2023-08-06T09:12:18;18.80;99.90
8595;DHT22;4335;48.860;9.198;2023-08-06T09:14:45;18.60;99.90
8595;DHT22;4335;48.860;9.198;2023-08-06T09:17:12;18.50;99.90
8595;DHT22;4335;48.860;9.198;2023-08-06T09:19:51;18.40;99.90
8595;DHT22;4335;48.860;9.198;2023-08-06T09:22:18;18.30;99.90
8595;DHT22;4335;48.860;9.198;2023-08-06T09:24:46;18.30;99.90
8595;DHT22;4335;48.860;9.198;2023-08-06T09:27:15;18.30;99.90
8595;DHT22;4335;48.860;9.198;2023-08-06T09:29:43;18.40;99.90
8595;DHT22;4335;48.860;9.198;2023-08-06T09:32:12;18.30;99.90
8595;DHT22;4335;48.860;9.198;2023-08-06T09:34:39;18.30;99.90
8595;DHT22;4335;48.860;9.198;2023-08-06T09:37:09;18.40;99.90
8595;DHT22;4335;48.860;9.198;2023-08-06T09:39:42;18.50;99.90
8595;DHT22;4335;48.860;9.198;2023-08-06T09:42:15;18.50;99.90
8595;DHT22;4335;48.860;9.198;2023-08-06T09:44:41;18.20;99.90
8595;DHT22;4335;48.860;9.198;2023-08-06T09:47:08;18.30;99.90
8595;DHT22;4335;48.860;9.198;2023-08-06T09:49:43;18.10;99.90
8595;DHT22;4335;48.860;9.198;2023-08-06T09:52:17;18.00;99.90
8595;DHT22;4335;48.860;9.198;2023-08-06T09:54:45;18.00;99.90
8595;DHT22;4335;48.860;9.198;2023-08-06T09:57:14;17.80;99.90
8595;DHT22;4335;48.860;9.198;2023-08-06T09:59:51;17.80;99.90
8595;DHT22;4335;48.860;9.198;2023-08-06T10:02:19;17.80;99.90
8595;DHT22;4335;48.860;9.198;2023-08-06T10:04:51;17.80;99.90
8595;DHT22;4335;48.860;9.198;2023-08-06T10:07:19;17.80;99.90
8595;DHT22;4335;48.860;9.198;2023-08-06T10:09:46;17.80;99.90
8595;DHT22;4335;48.860;9.198;2023-08-06T10:12:13;17.80;99.90
8595;DHT22;4335;48.860;9.198;2023-08-06T10:14:40;17.80;99.90
8595;DHT22;4335;48.860;9.198;2023-08-06T10:17:09;17.80;99.90
8595;DHT22;4335;48.860;9.198;2023-08-06T10:19:39;18.00;99.90
8595;DHT22;4335;48.860;9.198;2023-08-06T10:22:20;18.20;99.90
8595;DHT22;4335;48.860;9.198;2023-08-06T10:24:54;18.40;99.90
8595;DHT22;4335;48.860;9.198;2023-08-06T10:27:22;18.60;99.90
8595;DHT22;4335;48.860;9.198;2023-08-06T10:29:52;18.60;99.90
8595;DHT22;4335;48.860;9.198;2023-08-06T10:32:51;18.60;99.90
8595;DHT22;4335;48.860;9.198;2023-08-06T10:35:31;18.50;99.90
8595;DHT22;4335;48.860;9.198;2023-08-06T10:38:02;18.60;99.90
8595;DHT22;4335;48.860;9.198;2023-08-06T10:40:29;18.60;99.90
8595;DHT22;4335;48.860;9.198;2023-08-06T10:43:01;18.50;99.90
8595;DHT22;4335;48.860;9.198;2023-08-06T10:45:34;18.40;99.90
8595;DHT22;4335;48.860;9.198;2023-08-06T10:48:01;18.30;99.90
8595;DHT22;4335;48.860;9.198;2023-08-06T10:50:28;18.30;99.90
8595;DHT22;4335;48.860;9.198;2023-08-06T10:53:03;18.30;99.90
8595;DHT22;4335;48.860;9.198;2023-08-06T10:55:30;18.40;99.90
8595;DHT22;4335;48.860;9.198;2023-08-06T10:57:58;18.30;99.90
8595;DHT22;4335;48.860;9.198;2023-08-06T11:00:27;18.00;99.90
8595;DHT22;4335;48.860;9.198;2023-08-06T11:02:57;17.90;99.90
8595;DHT22;4335;48.860;9.198;2023-08-06T11:05:27;17.70;99.90
8595;DHT22;4335;48.860;9.198;2023-08-06T11:07:53;17.60;99.90
8595;DHT22;4335;48.860;9.198;2023-08-06T11:10:21;17.60;99.90
8595;DHT22;4335;48.860;9.198;2023-08-06T11:12:50;17.60;99.90
8595;DHT22;4335;48.860;9.198;2023-08-06T11:15:19;17.60;99.90
8595;DHT22;4335;48.860;9.198;2023-08-06T11:17:49;17.70;99.90
8595;DHT22;4335;48.860;9.198;2023-08-06T11:20:23;17.70;99.90
8595;DHT22;4335;48.860;9.198;2023-08-06T11:22:50;17.90;99.90
8595;DHT22;4335;48.860;9.198;2023-08-06T11:25:21;17.90;99.90
8595;DHT22;4335;48.860;9.198;2023-08-06T11:27:48;17.90;99.90
8595;DHT22;4335;48.860;9.198;2023-08-06T11:30:24;17.90;99.90
8595;DHT22;4335;48.860;9.198;2023-08-06T11:32:53;17.80;99.90
8595;DHT22;4335;48.860;9.198;2023-08-06T11:35:20;17.90;99.90
8595;DHT22;4335;48.860;9.198;2023-08-06T11:37:47;17.80;99.90
8595;DHT22;4335;48.860;9.198;2023-08-06T11:40:15;17.60;99.90
8595;DHT22;4335;48.860;9.198;2023-08-06T11:42:42;17.50;99.90
8595;DHT22;4335;48.860;9.198;2023-08-06T11:45:09;17.50;99.90
8595;DHT22;4335;48.860;9.198;2023-08-06T11:47:38;17.50;99.90
8595;DHT22;4335;48.860;9.198;2023-08-06T11:50:06;17.50;99.90
8595;DHT22;4335;48.860;9.198;2023-08-06T11:52:33;17.50;99.90
8595;DHT22;4335;48.860;9.198;2023-08-06T11:55:07;17.60;99.90
8595;DHT22;4335;48.860;9.198;2023-08-06T11:57:36;17.60;99.90
8595;DHT22;4335;48.860;9.198;2023-08-06T12:00:08;17.80;99.90
8595;DHT22;4335;48.860;9.198;2023-08-06T12:02:39;17.80;99.90
8595;DHT22;4335;48.860;9.198;2023-08-06T12:05:11;17.70;99.90
8595;DHT22;4335;48.860;9.198;2023-08-06T12:07:39;17.60;99.90
8595;DHT22;4335;48.860;9.198;2023-08-06T12:10:06;17.40;99.90
8595;DHT22;4335;48.860;9.198;2023-08-06T12:12:33;17.40;99.90
8595;DHT22;4335;48.860;9.198;2023-08-06T12:15:00;17.00;99.90
8595;DHT22;4335;48.860;9.198;2023-08-06T12:17:28;16.80;99.90
8595;DHT22;4335;48.860;9.198;2023-08-06T12:20:08;16.80;99.90
8595;DHT22;4335;48.860;9.198;2023-08-06T12:22:35;16.70;99.90
8595;DHT22;4335;48.860;9.198;2023-08-06T12:25:11;16.60;99.90
8595;DHT22;4335;48.860;9.198;2023-08-06T12:27:39;16.60;99.90
8595;DHT22;4335;48.860;9.198;2023-08-06T12:30:07;16.50;99.90
8595;DHT22;4335;48.860;9.198;2023-08-06T12:32:35;16.30;99.90
8595;DHT22;4335;48.860;9.198;2023-08-06T12:35:05;16.40;99.90
8595;DHT22;4335;48.860;9.198;2023-08-06T12:37:33;16.50;99.90
8595;DHT22;4335;48.860;9.198;2023-08-06T12:40:03;16.60;99.90
8595;DHT22;4335;48.860;9.198;2023-08-06T12:42:30;16.70;99.90
8595;DHT22;4335;48.860;9.198;2023-08-06T12:44:57;16.90;99.90
8595;DHT22;4335;48.860;9.198;2023-08-06T12:47:26;17.00;99.90
8595;DHT22;4335;48.860;9.198;2023-08-06T12:49:57;17.10;99.90
8595;DHT22;4335;48.860;9.198;2023-08-06T12:52:26;17.20;99.90
8595;DHT22;4335;48.860;9.198;2023-08-06T12:54:53;17.40;99.90
8595;DHT22;4335;48.860;9.198;2023-08-06T12:57:20;17.50;99.90
8595;DHT22;4335;48.860;9.198;2023-08-06T12:59:46;17.60;99.90
8595;DHT22;4335;48.860;9.198;2023-08-06T13:02:17;17.60;99.90
8595;DHT22;4335;48.860;9.198;2023-08-06T13:04:46;17.80;99.90
8595;DHT22;4335;48.860;9.198;2023-08-06T13:07:13;18.00;99.90
8595;DHT22;4335;48.860;9.198;2023-08-06T13:09:43;18.20;99.90
8595;DHT22;4335;48.860;9.198;2023-08-06T13:12:09;18.30;99.90
8595;DHT22;4335;48.860;9.198;2023-08-06T13:14:39;18.40;99.90
8595;DHT22;4335;48.860;9.198;2023-08-06T13:17:06;18.40;99.90
8595;DHT22;4335;48.860;9.198;2023-08-06T13:19:33;18.50;99.90
8595;DHT22;4335;48.860;9.198;2023-08-06T13:22:02;18.70;99.90
8595;DHT22;4335;48.860;9.198;2023-08-06T13:24:30;18.80;99.90
8595;DHT22;4335;48.860;9.198;2023-08-06T13:26:57;19.00;99.90
8595;DHT22;4335;48.860;9.198;2023-08-06T13:29:25;19.20;99.90
8595;DHT22;4335;48.860;9.198;2023-08-06T13:31:52;19.30;99.90
8595;DHT22;4335;48.860;9.198;2023-08-06T13:34:25;19.30;99.90
8595;DHT22;4335;48.860;9.198;2023-08-06T13:36:51;19.20;99.90
8595;DHT22;4335;48.860;9.198;2023-08-06T13:39:18;19.20;99.90
8595;DHT22;4335;48.860;9.198;2023-08-06T13:41:49;19.20;99.90
8595;DHT22;4335;48.860;9.198;2023-08-06T13:44:15;19.00;99.90
8595;DHT22;4335;48.860;9.198;2023-08-06T13:46:42;18.80;99.90
8595;DHT22;4335;48.860;9.198;2023-08-06T13:49:09;18.70;99.90
8595;DHT22;4335;48.860;9.198;2023-08-06T13:51:38;18.70;99.90
8595;DHT22;4335;48.860;9.198;2023-08-06T13:54:10;18.70;99.90
8595;DHT22;4335;48.860;9.198;2023-08-06T13:56:37;18.70;99.90
8595;DHT22;4335;48.860;9.198;2023-08-06T13:59:07;18.60;99.90
8595;DHT22;4335;48.860;9.198;2023-08-06T14:01:34;18.60;99.90
8595;DHT22;4335;48.860;9.198;2023-08-06T14:04:03;18.80;99.90
8595;DHT22;4335;48.860;9.198;2023-08-06T14:06:30;18.80;99.90
8595;DHT22;4335;48.860;9.198;2023-08-06T14:08:57;18.70;99.90
8595;DHT22;4335;48.860;9.198;2023-08-06T14:11:32;18.70;99.90
8595;DHT22;4335;48.860;9.198;2023-08-06T14:13:59;18.60;99.90
8595;DHT22;4335;48.860;9.198;2023-08-06T14:16:29;18.40;99.90
8595;DHT22;4335;48.860;9.198;2023-08-06T14:18:56;18.30;99.90
8595;DHT22;4335;48.860;9.198;2023-08-06T14:21:25;18.10;99.90
8595;DHT22;4335;48.860;9.198;2023-08-06T14:23:55;18.00;99.90
8595;DHT22;4335;48.860;9.198;2023-08-06T14:26:22;18.00;99.90
8595;DHT22;4335;48.860;9.198;2023-08-06T14:28:49;18.00;99.90
8595;DHT22;4335;48.860;9.198;2023-08-06T14:31:23;18.00;99.90
8595;DHT22;4335;48.860;9.198;2023-08-06T14:33:53;18.00;99.90
8595;DHT22;4335;48.860;9.198;2023-08-06T14:36:23;18.10;99.90
8595;DHT22;4335;48.860;9.198;2023-08-06T14:39:00;18.20;99.90
8595;DHT22;4335;48.860;9.198;2023-08-06T14:41:30;18.30;99.90
8595;DHT22;4335;48.860;9.198;2023-08-06T14:43:59;18.20;99.90
8595;DHT22;4335;48.860;9.198;2023-08-06T14:46:26;18.30;99.90
8595;DHT22;4335;48.860;9.198;2023-08-06T14:48:53;18.20;99.90
8595;DHT22;4335;48.860;9.198;2023-08-06T14:51:20;18.30;99.90
8595;DHT22;4335;48.860;9.198;2023-08-06T14:53:56;18.30;99.90
8595;DHT22;4335;48.860;9.198;2023-08-06T14:56:23;18.30;99.90
8595;DHT22;4335;48.860;9.198;2023-08-06T14:58:52;18.30;99.90
8595;DHT22;4335;48.860;9.198;2023-08-06T15:01:19;18.30;99.90
8595;DHT22;4335;48.860;9.198;2023-08-06T15:03:45;18.30;99.90
8595;DHT22;4335;48.860;9.198;2023-08-06T15:06:17;18.10;99.90
8595;DHT22;4335;48.860;9.198;2023-08-06T15:08:43;18.10;99.90
8595;DHT22;4335;48.860;9.198;2023-08-06T15:11:15;18.10;99.90
8595;DHT22;4335;48.860;9.198;2023-08-06T15:13:42;18.00;99.90
8595;DHT22;4335;48.860;9.198;2023-08-06T15:16:11;17.90;99.90
8595;DHT22;4335;48.860;9.198;2023-08-06T15:18:44;17.90;99.90
8595;DHT22;4335;48.860;9.198;2023-08-06T15:21:14;17.80;99.90
8595;DHT22;4335;48.860;9.198;2023-08-06T15:23:41;17.70;99.90
8595;DHT22;4335;48.860;9.198;2023-08-06T15:26:08;17.80;99.90
8595;DHT22;4335;48.860;9.198;2023-08-06T15:28:41;17.80;99.90
8595;DHT22;4335;48.860;9.198;2023-08-06T15:31:07;17.80;99.90
8595;DHT22;4335;48.860;9.198;2023-08-06T15:33:34;17.90;99.90
8595;DHT22;4335;48.860;9.198;2023-08-06T15:36:04;17.90;99.90
8595;DHT22;4335;48.860;9.198;2023-08-06T15:38:31;18.00;99.90
8595;DHT22;4335;48.860;9.198;2023-08-06T15:41:06;18.00;99.90
8595;DHT22;4335;48.860;9.198;2023-08-06T15:43:33;18.00;99.90
8595;DHT22;4335;48.860;9.198;2023-08-06T15:46:03;17.90;99.90
8595;DHT22;4335;48.860;9.198;2023-08-06T15:48:30;17.90;99.90
8595;DHT22;4335;48.860;9.198;2023-08-06T15:50:57;17.90;99.90
8595;DHT22;4335;48.860;9.198;2023-08-06T15:53:30;17.80;99.90
8595;DHT22;4335;48.860;9.198;2023-08-06T15:55:57;17.90;99.90
8595;DHT22;4335;48.860;9.198;2023-08-06T15:58:23;17.80;99.90
8595;DHT22;4335;48.860;9.198;2023-08-06T16:00:50;17.80;99.90
8595;DHT22;4335;48.860;9.198;2023-08-06T16:03:18;17.80;99.90
8595;DHT22;4335;48.860;9.198;2023-08-06T16:05:50;17.70;99.90
8595;DHT22;4335;48.860;9.198;2023-08-06T16:08:20;17.70;99.90
8595;DHT22;4335;48.860;9.198;2023-08-06T16:10:50;17.50;99.90
8595;DHT22;4335;48.860;9.198;2023-08-06T16:13:17;17.40;99.90
8595;DHT22;4335;48.860;9.198;2023-08-06T16:15:44;17.30;99.90